Time;durP1;ratioP1;P1;durP2;ratioP2;P2;SDS_P1;SDS_P2;PMS_P1;PMS_P2;Temp;Humidity;BMP_temperature;BMP_pressure;BME280_temperature;BME280_humidity;BME280_pressure;Samples;Min_cycle;Max_cycle;Signal;HPM_P1;HPM_P2
2021/12/29 00:02:32;;;;;;;0.87;0.87;;;11.10;99.90;11.00;100119.00;;;;5015851;28;20220;-69
2021/12/29 00:05:09;;;;;;;0.83;0.70;;;11.00;99.90;11.00;100135.00;;;;5015046;28;20183;-69
2021/12/29 00:07:48;;;;;;;0.50;0.50;;;11.00;99.90;11.20;100138.00;;;;5014892;28;20195;-69
2021/12/29 00:10:26;;;;;;;1.00;1.00;;;11.00;99.90;11.10;100139.00;;;;5014662;28;20214;-69
2021/12/29 00:13:04;;;;;;;1.03;0.80;;;11.10;99.90;11.10;100155.00;;;;5014538;28;20246;-69
2021/12/29 00:15:36;;;;;;;0.60;0.60;;;11.00;99.90;11.30;100156.00;;;;5015929;28;20651;-69
2021/12/29 00:18:07;;;;;;;0.80;0.80;;;11.00;99.90;11.10;100149.00;;;;5015664;28;20580;-67
2021/12/29 00:20:45;;;;;;;0.50;0.50;;;11.00;99.90;11.40;100114.00;;;;5014655;28;20230;-67
2021/12/29 00:23:22;;;;;;;1.17;0.67;;;11.10;99.90;11.50;100151.00;;;;5015396;28;20526;-67
2021/12/29 00:25:59;;;;;;;0.40;0.40;;;11.20;99.90;11.20;100161.00;;;;5014087;28;20198;-68
2021/12/29 00:28:34;;;;;;;1.17;1.07;;;11.10;99.90;11.20;100147.00;;;;5015531;28;20205;-68
2021/12/29 00:31:16;;;;;;;0.67;0.67;;;11.10;99.90;11.30;100167.00;;;;5014056;28;20182;-68
2021/12/29 00:33:55;;;;;;;0.97;0.73;;;11.10;99.90;11.30;100178.00;;;;5014426;28;20559;-67
2021/12/29 00:36:26;;;;;;;1.50;1.07;;;11.10;99.90;11.10;100187.00;;;;5013886;28;20191;-68
2021/12/29 00:39:00;;;;;;;4.23;1.07;;;11.10;99.90;11.00;100188.00;;;;5015259;28;20547;-67
2021/12/29 00:41:34;;;;;;;1.33;1.23;;;11.00;99.90;11.10;100175.00;;;;5013836;28;20186;-68
2021/12/29 00:44:17;;;;;;;0.43;0.43;;;11.00;99.90;10.80;100179.00;;;;5015054;28;20546;-67
2021/12/29 00:46:57;;;;;;;0.40;0.40;;;10.80;99.90;10.70;100186.00;;;;5030569;28;20222;-67
2021/12/29 00:49:35;;;;;;;1.47;1.37;;;10.80;99.90;10.40;100192.00;;;;5015262;28;20705;-67
2021/12/29 00:52:13;;;;;;;0.73;0.60;;;10.60;99.90;10.70;100188.00;;;;5013772;28;20667;-67
2021/12/29 00:54:49;;;;;;;0.40;0.40;;;10.60;99.90;10.90;100190.00;;;;5029056;28;20186;-67
2021/12/29 00:57:31;;;;;;;0.50;0.40;;;10.70;99.90;10.80;100209.00;;;;5013829;28;20614;-67
2021/12/29 01:00:15;;;;;;;10.03;1.30;;;10.80;99.90;10.90;100214.00;;;;5013988;28;20208;-67
2021/12/29 01:02:53;;;;;;;0.73;0.73;;;10.80;99.90;10.50;100219.00;;;;5013515;28;20729;-67
2021/12/29 01:05:29;;;;;;;0.30;0.30;;;10.70;99.90;10.80;100207.00;;;;5013846;28;20196;-67
2021/12/29 01:08:01;;;;;;;0.40;0.40;;;10.70;99.90;10.90;100232.00;;;;5030304;28;20180;-67
2021/12/29 01:10:36;;;;;;;0.70;0.70;;;10.80;99.90;10.90;100197.00;;;;5013266;28;20659;-67
2021/12/29 01:13:11;;;;;;;1.23;1.10;;;10.80;99.90;10.90;100234.00;;;;5013704;28;20209;-67
2021/12/29 01:18:36;;;;;;;1.07;1.07;;;10.90;99.90;10.70;100246.00;;;;5013769;28;20193;-67
2021/12/29 01:21:10;;;;;;;0.40;0.40;;;10.80;99.90;10.60;100252.00;;;;5013538;28;20204;-67
2021/12/29 01:23:47;;;;;;;0.63;0.63;;;10.60;99.90;10.40;100239.00;;;;5014023;28;20557;-67
2021/12/29 01:26:20;;;;;;;0.80;0.80;;;10.50;99.90;10.70;100252.00;;;;5013336;28;20609;-67
2021/12/29 01:28:56;;;;;;;1.83;0.77;;;10.70;99.90;10.70;100236.00;;;;5029726;28;20194;-67
2021/12/29 01:31:36;;;;;;;0.30;0.30;;;10.70;99.90;10.50;100279.00;;;;5012911;28;20286;-67
2021/12/29 01:34:11;;;;;;;0.30;0.30;;;10.60;99.90;10.80;100247.00;;;;5013426;28;20200;-67
2021/12/29 01:36:48;;;;;;;0.93;0.70;;;10.60;99.90;10.30;100286.00;;;;4996728;28;20553;-67
2021/12/29 01:39:26;;;;;;;0.70;0.43;;;10.60;99.90;10.50;100266.00;;;;5013136;28;20225;-67
2021/12/29 01:42:06;;;;;;;0.80;0.80;;;10.60;99.90;10.70;100288.00;;;;5014297;28;20203;-68
2021/12/29 01:44:40;;;;;;;0.93;0.93;;;10.70;99.90;10.60;100285.00;;;;5013149;28;20174;-67
2021/12/29 01:47:24;;;;;;;0.50;0.50;;;10.70;99.90;10.50;100300.00;;;;5013199;28;20279;-67
2021/12/29 01:50:04;;;;;;;3.33;0.60;;;10.60;99.90;10.60;100294.00;;;;5013389;28;20305;-67
2021/12/29 01:52:40;;;;;;;0.73;0.73;;;10.60;99.90;10.20;100256.00;;;;5012922;28;20214;-67
2021/12/29 01:55:18;;;;;;;0.30;0.30;;;10.60;99.90;10.90;100289.00;;;;5012984;28;20191;-67
2021/12/29 01:57:57;;;;;;;5.73;0.70;;;10.70;99.90;10.50;100306.00;;;;5014202;28;20194;-67
2021/12/29 02:00:41;;;;;;;0.50;0.50;;;10.70;99.90;10.40;100275.00;;;;5013921;28;20190;-67
2021/12/29 02:03:15;;;;;;;0.87;0.50;;;10.60;99.90;10.30;100314.00;;;;5012440;28;20199;-67
2021/12/29 02:05:52;;;;;;;0.30;0.30;;;10.60;99.90;10.60;100319.00;;;;5013526;28;20643;-67
2021/12/29 02:08:43;;;;;;;1.47;1.10;;;10.60;99.90;10.40;100333.00;;;;5013601;28;20203;-67
2021/12/29 02:11:28;;;;;;;2.77;2.40;;;10.60;99.90;10.50;100325.00;;;;5012463;28;20209;-67
2021/12/29 02:14:06;;;;;;;2.03;1.40;;;10.60;99.90;10.50;100334.00;;;;5012647;28;20173;-67
2021/12/29 02:16:43;;;;;;;0.50;0.50;;;10.60;99.90;10.40;100333.00;;;;5013931;28;20175;-67
2021/12/29 02:19:25;;;;;;;1.23;0.70;;;10.60;99.90;10.40;100304.00;;;;5013762;28;20272;-67
2021/12/29 02:22:12;;;;;;;3.37;1.23;;;10.60;99.90;10.50;100335.00;;;;5012003;28;20194;-67
2021/12/29 02:25:05;;;;;;;0.83;0.60;;;10.60;99.90;10.60;100344.00;;;;5013470;28;20182;-67
2021/12/29 02:27:46;;;;;;;0.37;0.37;;;10.60;99.90;10.60;100352.00;;;;5012532;28;20180;-67
2021/12/29 02:30:25;;;;;;;0.30;0.30;;;10.60;99.90;10.40;100345.00;;;;5013648;28;20175;-67
2021/12/29 02:33:05;;;;;;;0.53;0.53;;;10.60;99.90;10.70;100346.00;;;;5012207;28;20227;-68
2021/12/29 02:35:41;;;;;;;0.40;0.40;;;10.60;99.90;10.10;100346.00;;;;5012326;28;20183;-67
2021/12/29 02:38:26;;;;;;;0.67;0.67;;;10.40;99.90;10.10;100352.00;;;;5012168;28;20632;-67
2021/12/29 02:41:06;;;;;;;1.23;0.70;;;10.30;99.90;10.10;100351.00;;;;4995865;28;20187;-67
2021/12/29 02:43:41;;;;;;;0.20;0.20;;;10.30;99.90;9.90;100356.00;;;;5012581;28;20201;-67
2021/12/29 02:46:19;;;;;;;0.70;0.70;;;10.20;99.90;9.90;100351.00;;;;5012355;28;20187;-67
2021/12/29 02:48:59;;;;;;;0.30;0.30;;;10.20;99.90;10.30;100350.00;;;;5012289;28;20187;-67
2021/12/29 02:51:37;;;;;;;0.30;0.30;;;10.20;99.90;10.10;100351.00;;;;5013028;28;20207;-67
2021/12/29 02:54:16;;;;;;;0.30;0.30;;;10.30;99.90;10.60;100367.00;;;;5012311;28;20263;-67
2021/12/29 02:56:55;;;;;;;0.53;0.53;;;10.50;99.90;10.40;100355.00;;;;5013222;28;20207;-67
2021/12/29 02:59:35;;;;;;;0.70;0.53;;;10.50;99.90;10.00;100378.00;;;;5013426;28;20571;-67
2021/12/29 03:02:06;;;;;;;1.30;1.20;;;10.30;99.90;10.30;100350.00;;;;5028331;28;20284;-67
2021/12/29 03:04:43;;;;;;;3.17;2.63;;;10.40;99.90;10.20;100387.00;;;;5012491;28;20183;-67
2021/12/29 03:07:24;;;;;;;1.00;1.00;;;10.40;99.90;10.60;100382.00;;;;5011926;28;20232;-67
2021/12/29 03:10:07;;;;;;;2.47;1.27;;;10.40;99.90;10.20;100366.00;;;;5012197;28;20285;-67
2021/12/29 03:12:43;;;;;;;0.60;0.60;;;10.40;99.90;9.90;100342.00;;;;5011738;28;20572;-67
2021/12/29 03:15:20;;;;;;;0.67;0.67;;;10.20;99.90;10.00;100389.00;;;;5011906;28;20256;-67
2021/12/29 03:17:57;;;;;;;8.43;2.13;;;10.20;99.90;10.20;100355.00;;;;5011750;28;20190;-67
2021/12/29 03:20:31;;;;;;;0.77;0.70;;;10.30;99.90;10.00;100399.00;;;;5015373;28;20299;-67
2021/12/29 03:23:03;;;;;;;1.03;1.03;;;10.30;99.90;10.10;100401.00;;;;5015345;28;20278;-67
2021/12/29 03:25:40;;;;;;;0.30;0.30;;;10.20;99.90;10.10;100398.00;;;;5016950;28;20172;-68
2021/12/29 03:28:22;;;;;;;0.47;0.47;;;10.30;99.90;10.30;100408.00;;;;5015556;28;20186;-68
2021/12/29 03:30:59;;;;;;;0.73;0.73;;;10.40;99.90;10.10;100404.00;;;;5016421;28;20163;-67
2021/12/29 03:33:39;;;;;;;2.37;2.17;;;10.30;99.90;10.10;100369.00;;;;5015127;28;20287;-68
2021/12/29 03:36:23;;;;;;;1.37;1.00;;;10.30;99.90;10.10;100404.00;;;;5015252;28;20187;-67
2021/12/29 03:39:02;;;;;;;0.83;0.83;;;10.30;99.90;9.90;100408.00;;;;5015447;28;20262;-68
2021/12/29 03:41:36;;;;;;;1.47;1.37;;;10.20;99.90;10.00;100413.00;;;;5015675;28;20173;-68
2021/12/29 03:44:11;;;;;;;0.83;0.83;;;10.20;99.90;10.10;100408.00;;;;5015172;28;20173;-68
2021/12/29 03:46:47;;;;;;;0.60;0.60;;;10.20;99.90;10.30;100419.00;;;;5031707;28;20628;-68
2021/12/29 03:49:27;;;;;;;2.47;2.27;;;10.30;99.90;10.50;100398.00;;;;5014840;28;20181;-68
2021/12/29 03:52:05;;;;;;;0.50;0.50;;;10.40;99.90;10.10;100422.00;;;;5016429;28;20204;-68
2021/12/29 03:54:40;;;;;;;1.60;1.50;;;10.40;99.90;10.20;100420.00;;;;5015042;28;20179;-68
2021/12/29 03:57:16;;;;;;;0.40;0.40;;;10.30;99.90;10.00;100402.00;;;;5014989;28;20311;-67
2021/12/29 03:59:50;;;;;;;2.93;1.30;;;10.30;99.90;10.30;100412.00;;;;5031395;28;20207;-67
2021/12/29 04:02:27;;;;;;;0.93;0.93;;;10.30;99.90;9.80;100406.00;;;;5015885;28;20308;-67
2021/12/29 04:05:05;;;;;;;0.63;0.40;;;10.10;99.90;10.10;100425.00;;;;5015861;28;20284;-68
2021/12/29 04:07:37;;;;;;;1.17;1.07;;;10.20;99.90;10.00;100426.00;;;;5014834;28;20569;-68
2021/12/29 04:10:10;;;;;;;1.10;1.10;;;10.20;99.90;10.00;100428.00;;;;5014998;28;20181;-67
2021/12/29 04:12:50;;;;;;;0.77;0.77;;;10.20;99.90;9.60;100424.00;;;;5014835;28;20621;-67
2021/12/29 04:15:30;;;;;;;0.40;0.40;;;10.10;99.90;9.60;100425.00;;;;5014585;28;20179;-67
2021/12/29 04:18:04;;;;;;;0.20;0.20;;;10.00;99.90;10.00;100423.00;;;;5015735;28;20233;-68
2021/12/29 04:23:33;;;;;;;0.50;0.50;;;10.20;99.90;10.10;100421.00;;;;5014459;28;20177;-67
2021/12/29 04:26:11;;;;;;;1.07;1.07;;;10.10;99.90;10.20;100419.00;;;;5014315;28;20193;-67
2021/12/29 04:28:48;;;;;;;1.47;1.37;;;10.30;99.90;9.80;100412.00;;;;5014460;28;20258;-67
2021/12/29 04:31:25;;;;;;;0.50;0.50;;;10.10;99.90;9.80;100414.00;;;;5014450;28;20194;-67
2021/12/29 04:34:04;;;;;;;0.43;0.43;;;10.10;99.90;10.10;100423.00;;;;5014778;28;20180;-68
2021/12/29 04:36:43;;;;;;;0.20;0.20;;;10.10;99.90;10.10;100420.00;;;;5030820;28;20251;-67
2021/12/29 04:39:22;;;;;;;3.27;2.97;;;10.20;99.90;9.90;100416.00;;;;5014563;28;20185;-67
2021/12/29 04:41:59;;;;;;;0.70;0.70;;;10.10;99.90;9.70;100423.00;;;;5014166;28;20209;-67
2021/12/29 04:44:33;;;;;;;0.30;0.30;;;10.00;99.90;10.00;100416.00;;;;5013919;28;20163;-67
2021/12/29 04:47:08;;;;;;;1.50;1.30;;;10.10;99.90;9.90;100431.00;;;;5013807;28;20280;-67
2021/12/29 04:49:45;;;;;;;0.60;0.60;;;10.00;99.90;9.60;100440.00;;;;5014280;28;20159;-67
2021/12/29 04:52:22;;;;;;;1.07;1.00;;;10.00;99.90;10.20;100454.00;;;;5013854;28;20286;-67
2021/12/29 04:54:58;;;;;;;0.47;0.47;;;10.10;99.90;9.70;100449.00;;;;5014230;28;20178;-67
2021/12/29 04:57:39;;;;;;;0.43;0.43;;;10.00;99.90;9.80;100456.00;;;;5013959;28;20186;-67
2021/12/29 05:00:16;;;;;;;0.57;0.57;;;10.00;99.90;10.00;100448.00;;;;5014130;28;20189;-67
2021/12/29 05:02:56;;;;;;;0.47;0.47;;;10.10;99.90;10.20;100443.00;;;;5013318;28;20236;-67
2021/12/29 05:11:10;;;;;;;0.40;0.40;;;10.10;99.90;9.80;100446.00;;;;5013999;28;20228;-68
2021/12/29 05:13:50;;;;;;;0.60;0.60;;;10.10;99.90;10.00;100440.00;;;;5013383;28;20194;-68
2021/12/29 05:16:28;;;;;;;0.40;0.40;;;10.10;99.90;10.40;100399.00;;;;5014639;28;20563;-68
2021/12/29 05:19:07;;;;;;;0.30;0.30;;;10.20;99.90;9.70;100405.00;;;;5014742;28;20563;-68
2021/12/29 05:21:50;;;;;;;1.53;1.43;;;10.10;99.90;9.60;100443.00;;;;5014850;28;20285;-67
2021/12/29 05:24:24;;;;;;;0.30;0.30;;;10.00;99.90;9.70;100460.00;;;;5013349;28;20722;-67
2021/12/29 05:26:58;;;;;;;0.40;0.40;;;9.90;99.90;9.90;100465.00;;;;5013636;28;20710;-68
2021/12/29 05:29:32;;;;;;;1.03;1.03;;;10.00;99.90;9.80;100423.00;;;;5013540;28;20209;-68
2021/12/29 05:32:11;;;;;;;0.40;0.40;;;10.10;99.90;9.70;100462.00;;;;5012760;28;20297;-67
2021/12/29 05:34:52;;;;;;;0.50;0.50;;;10.00;99.90;10.30;100474.00;;;;5013159;28;20173;-67
2021/12/29 05:37:26;;;;;;;0.97;0.97;;;10.10;99.90;10.20;100466.00;;;;5013780;28;20577;-68
2021/12/29 05:40:06;;;;;;;1.30;1.30;;;10.20;99.90;10.10;100435.00;;;;5014250;28;20191;-68
2021/12/29 05:42:43;;;;;;;0.33;0.33;;;10.20;99.90;9.90;100476.00;;;;5013630;28;20193;-67
2021/12/29 05:45:20;;;;;;;0.20;0.20;;;10.10;99.90;9.80;100464.00;;;;5014009;28;20292;-67
2021/12/29 05:48:01;;;;;;;0.60;0.60;;;10.00;99.90;10.20;100451.00;;;;5012919;28;20640;-67
2021/12/29 05:50:39;;;;;;;3.63;3.50;;;10.10;99.90;11.00;100459.00;;;;5014065;28;20180;-68
2021/12/29 05:53:12;;;;;;;0.30;0.30;;;10.40;99.90;10.90;100464.00;;;;5013857;28;20203;-68
2021/12/29 05:55:47;;;;;;;0.30;0.30;;;10.50;99.90;11.00;100464.00;;;;5014407;28;20209;-67
2021/12/29 05:58:24;;;;;;;0.30;0.30;;;10.60;99.90;10.30;100444.00;;;;5012703;28;20181;-69
2021/12/29 06:00:58;;;;;;;1.13;1.13;;;10.50;99.90;10.50;100449.00;;;;5012297;28;20581;-68
2021/12/29 06:03:32;;;;;;;0.30;0.30;;;10.30;99.90;11.00;100459.00;;;;5012577;28;20632;-68
2021/12/29 06:06:06;;;;;;;0.30;0.30;;;10.50;99.90;11.40;100452.00;;;;5012962;28;20638;-67
2021/12/29 06:08:40;;;;;;;0.30;0.30;;;10.70;99.90;11.70;100466.00;;;;5014309;28;20187;-68
2021/12/29 06:11:17;;;;;;;0.30;0.30;;;11.00;99.90;10.90;100450.00;;;;5012382;28;20649;-67
2021/12/29 06:13:51;;;;;;;0.40;0.40;;;10.80;99.90;11.10;100465.00;;;;5013273;28;20187;-68
2021/12/29 06:16:27;;;;;;;3.43;1.17;;;10.80;99.90;10.60;100477.00;;;;5012383;28;20608;-67
2021/12/29 06:19:07;;;;;;;0.30;0.30;;;10.60;99.90;10.70;100484.00;;;;5028896;28;20202;-67
2021/12/29 06:21:43;;;;;;;0.30;0.30;;;10.60;99.90;11.00;100437.00;;;;5012542;28;20643;-68
2021/12/29 06:24:14;;;;;;;0.37;0.37;;;10.60;99.90;11.30;100485.00;;;;5013710;28;20253;-68
2021/12/29 06:26:54;;;;;;;0.30;0.30;;;10.70;99.90;11.30;100490.00;;;;5012588;28;20179;-67
2021/12/29 06:29:34;;;;;;;0.40;0.40;;;10.80;99.90;11.20;100490.00;;;;5012367;28;20708;-67
2021/12/29 06:32:14;;;;;;;0.40;0.40;;;10.70;99.90;11.10;100493.00;;;;5012224;28;20233;-67
2021/12/29 06:34:50;;;;;;;0.30;0.30;;;10.70;99.90;10.70;100498.00;;;;5012191;28;20196;-67
2021/12/29 06:37:30;;;;;;;0.30;0.30;;;10.50;99.90;10.90;100503.00;;;;5012434;28;20195;-67
2021/12/29 06:40:07;;;;;;;0.30;0.30;;;10.50;99.90;10.70;100499.00;;;;5012655;28;20192;-67
2021/12/29 06:42:45;;;;;;;0.30;0.30;;;10.50;99.90;10.90;100499.00;;;;5013175;28;20194;-67
2021/12/29 06:45:18;;;;;;;0.30;0.30;;;10.50;99.90;10.80;100509.00;;;;5012138;28;20270;-67
2021/12/29 06:47:52;;;;;;;0.30;0.30;;;10.40;99.90;10.20;100501.00;;;;5012533;28;20190;-67
2021/12/29 06:50:26;;;;;;;0.30;0.30;;;10.30;99.90;9.90;100491.00;;;;5012283;28;20197;-67
2021/12/29 06:53:03;;;;;;;0.30;0.30;;;10.00;99.90;10.20;100486.00;;;;5011983;28;20211;-67
2021/12/29 06:55:39;;;;;;;0.30;0.30;;;10.00;99.90;10.00;100489.00;;;;5016697;28;20175;-67
2021/12/29 06:58:14;;;;;;;0.43;0.43;;;9.90;99.90;10.30;100452.00;;;;5015911;28;20266;-67
2021/12/29 07:00:45;;;;;;;3.60;1.00;;;10.00;99.90;10.00;100490.00;;;;5016060;28;20540;-68
2021/12/29 07:03:19;;;;;;;0.30;0.30;;;9.90;99.90;9.80;100484.00;;;;5016034;28;20544;-67
2021/12/29 07:05:54;;;;;;;0.30;0.30;;;9.80;99.90;9.60;100491.00;;;;5016996;28;20177;-68
2021/12/29 07:08:28;;;;;;;0.30;0.30;;;9.70;99.90;9.50;100476.00;;;;5017175;28;20185;-67
2021/12/29 07:11:08;;;;;;;0.30;0.30;;;9.60;99.90;9.90;100503.00;;;;5016011;28;20184;-67
2021/12/29 07:13:49;;;;;;;0.30;0.30;;;9.70;99.90;10.00;100510.00;;;;5015349;28;20577;-67
2021/12/29 07:16:29;;;;;;;0.37;0.37;;;9.80;99.90;9.80;100522.00;;;;5015968;28;20171;-67
2021/12/29 07:19:09;;;;;;;0.30;0.30;;;9.70;99.90;9.60;100521.00;;;;5016844;28;20267;-67
2021/12/29 07:21:49;;;;;;;0.30;0.30;;;9.70;99.90;9.80;100513.00;;;;5015639;28;20188;-67
2021/12/29 07:24:25;;;;;;;0.37;0.37;;;9.60;99.90;10.10;100499.00;;;;5015895;28;20212;-67
2021/12/29 07:27:05;;;;;;;0.30;0.30;;;9.70;99.90;10.00;100549.00;;;;5016373;28;20581;-67
2021/12/29 07:29:42;;;;;;;0.30;0.30;;;9.80;99.90;9.80;100505.00;;;;5016117;28;20214;-67
2021/12/29 07:32:19;;;;;;;0.30;0.30;;;9.80;99.90;10.10;100511.00;;;;5015242;28;20206;-67
2021/12/29 07:34:58;;;;;;;0.30;0.30;;;9.70;99.90;9.80;100539.00;;;;5016638;28;20186;-67
2021/12/29 07:37:37;;;;;;;0.30;0.30;;;9.70;99.90;10.10;100535.00;;;;5016727;28;20229;-67
2021/12/29 07:40:11;;;;;;;0.30;0.30;;;9.80;99.90;9.60;100521.00;;;;5016597;28;20179;-67
2021/12/29 07:42:48;;;;;;;0.30;0.30;;;9.60;99.90;9.80;100528.00;;;;5014911;28;20194;-67
2021/12/29 07:45:26;;;;;;;0.30;0.30;;;9.70;99.90;9.60;100510.00;;;;5031606;28;20224;-67
2021/12/29 07:48:04;;;;;;;0.40;0.40;;;9.60;99.90;9.40;100519.00;;;;5016514;28;20169;-67
2021/12/29 07:50:43;;;;;;;0.40;0.40;;;9.50;99.90;9.40;100517.00;;;;5016102;28;20193;-67
2021/12/29 07:53:20;;;;;;;0.30;0.30;;;9.50;99.90;9.50;100526.00;;;;5015114;28;20300;-67
2021/12/29 07:55:57;;;;;;;0.50;0.50;;;9.50;99.90;9.30;100528.00;;;;5015051;28;20185;-67
2021/12/29 07:58:33;;;;;;;0.30;0.30;;;9.40;99.90;9.40;100528.00;;;;5015032;28;20169;-67
2021/12/29 08:01:12;;;;;;;7.57;4.50;;;9.40;99.90;9.40;100494.00;;;;5015060;28;20644;-67
2021/12/29 08:03:51;;;;;;;0.30;0.30;;;9.40;99.90;9.40;100535.00;;;;5015799;28;20179;-67
2021/12/29 08:06:27;;;;;;;0.30;0.30;;;9.40;99.90;9.30;100528.00;;;;5014591;28;20176;-67
2021/12/29 08:09:01;;;;;;;0.30;0.30;;;9.30;99.90;9.20;100545.00;;;;5014897;28;20181;-67
2021/12/29 08:11:39;;;;;;;0.40;0.40;;;9.30;99.90;9.50;100535.00;;;;5014444;28;20162;-67
2021/12/29 08:14:16;;;;;;;0.40;0.40;;;9.30;99.90;9.70;100547.00;;;;5014403;28;20198;-67
2021/12/29 08:16:53;;;;;;;0.30;0.30;;;9.40;99.90;9.30;100545.00;;;;5046763;28;20188;-67
2021/12/29 08:19:38;;;;;;;0.30;0.30;;;9.40;99.90;9.30;100553.00;;;;5015961;28;20175;-67
2021/12/29 08:22:15;;;;;;;0.30;0.30;;;9.30;99.90;9.50;100548.00;;;;5014519;28;20314;-67
2021/12/29 08:24:56;;;;;;;0.30;0.30;;;9.40;99.90;9.20;100530.00;;;;5014204;28;20183;-67
2021/12/29 08:27:33;;;;;;;0.30;0.30;;;9.30;99.90;9.40;100553.00;;;;5014890;28;20163;-67
2021/12/29 08:30:10;;;;;;;0.30;0.30;;;9.40;99.90;9.20;100547.00;;;;5014629;28;20214;-67
2021/12/29 08:32:50;;;;;;;0.30;0.30;;;9.30;99.90;9.00;100544.00;;;;5015374;28;20294;-68
2021/12/29 08:35:27;;;;;;;0.30;0.30;;;9.20;99.90;9.20;100551.00;;;;5015632;28;20175;-68
2021/12/29 08:37:59;;;;;;;0.30;0.30;;;9.20;99.90;9.40;100548.00;;;;5014437;28;20694;-67
2021/12/29 08:40:35;;;;;;;0.40;0.40;;;9.30;99.90;9.40;100548.00;;;;5014101;28;20171;-68
2021/12/29 08:43:10;;;;;;;0.50;0.50;;;9.40;99.90;9.30;100537.00;;;;5014220;28;20195;-68
2021/12/29 08:45:43;;;;;;;0.40;0.40;;;9.40;99.90;9.40;100536.00;;;;5015528;28;20533;-67
2021/12/29 08:48:20;;;;;;;0.50;0.50;;;9.40;99.90;9.40;100499.00;;;;5013835;28;20314;-67
2021/12/29 08:50:59;;;;;;;0.30;0.30;;;9.40;99.90;9.50;100546.00;;;;5015290;28;20263;-68
2021/12/29 08:53:38;;;;;;;0.30;0.30;;;9.50;99.90;9.30;100544.00;;;;5013704;28;20207;-68
2021/12/29 08:56:17;;;;;;;0.40;0.40;;;9.40;99.90;9.30;100541.00;;;;5014425;28;20177;-68
2021/12/29 08:58:51;;;;;;;0.30;0.30;;;9.40;99.90;9.40;100534.00;;;;5015354;28;20167;-68
2021/12/29 09:01:30;;;;;;;0.60;0.60;;;9.40;99.90;9.20;100535.00;;;;5014091;28;20184;-68
2021/12/29 09:04:06;;;;;;;0.33;0.33;;;9.50;99.90;9.30;100524.00;;;;5013498;28;20581;-68
2021/12/29 09:06:40;;;;;;;0.30;0.30;;;9.40;99.90;9.20;100516.00;;;;5014812;28;20171;-68
2021/12/29 09:09:16;;;;;;;0.30;0.30;;;9.40;99.90;9.30;100508.00;;;;5013539;28;20211;-68
2021/12/29 09:11:58;;;;;;;0.30;0.30;;;9.40;99.90;9.10;100466.00;;;;5013621;28;20571;-68
2021/12/29 09:14:37;;;;;;;0.30;0.30;;;9.40;99.90;9.10;100502.00;;;;5013536;28;20636;-68
2021/12/29 09:17:15;;;;;;;1.60;1.50;;;9.30;99.90;9.20;100502.00;;;;5012642;28;20177;-70
2021/12/29 09:19:54;;;;;;;0.67;0.67;;;9.40;99.90;9.00;100496.00;;;;5013655;28;20198;-69
2021/12/29 09:22:34;;;;;;;0.60;0.60;;;9.30;99.90;9.20;100481.00;;;;5013439;28;20212;-69
2021/12/29 09:25:08;;;;;;;0.40;0.40;;;9.40;99.90;9.30;100501.00;;;;5013335;28;20189;-69
2021/12/29 09:27:49;;;;;;;0.43;0.43;;;9.40;99.90;9.30;100500.00;;;;5013123;28;20661;-69
2021/12/29 09:30:28;;;;;;;0.20;0.20;;;9.40;99.90;9.30;100503.00;;;;5014557;28;20182;-69
2021/12/29 09:33:00;;;;;;;0.30;0.30;;;9.40;99.90;9.40;100509.00;;;;5014203;28;20300;-66
2021/12/29 09:35:35;;;;;;;1.13;0.60;;;9.50;99.90;9.20;100474.00;;;;5013110;28;20183;-66
2021/12/29 09:38:09;;;;;;;0.40;0.40;;;9.40;99.90;9.50;100485.00;;;;5012841;28;20181;-66
2021/12/29 09:40:40;;;;;;;0.40;0.40;;;9.60;99.90;9.40;100490.00;;;;5029348;28;20188;-67
2021/12/29 09:43:17;;;;;;;0.30;0.30;;;9.50;99.90;9.50;100502.00;;;;5014421;28;20529;-67
2021/12/29 09:45:54;;;;;;;0.30;0.30;;;9.60;99.90;9.70;100451.00;;;;5013304;28;20175;-67
2021/12/29 09:48:30;;;;;;;0.30;0.30;;;9.60;99.90;9.40;100466.00;;;;5014006;28;20186;-66
2021/12/29 09:51:03;;;;;;;2.43;2.33;;;9.60;99.90;9.40;100470.00;;;;5014153;28;20652;-67
2021/12/29 09:53:41;;;;;;;1.20;1.20;;;9.60;99.90;9.60;100472.00;;;;5012753;28;20706;-66
2021/12/29 09:56:17;;;;;;;0.40;0.40;;;9.60;99.90;9.30;100470.00;;;;5013124;28;20173;-67
2021/12/29 09:58:51;;;;;;;0.20;0.20;;;9.60;99.90;9.20;100437.00;;;;5012710;28;20181;-68
2021/12/29 10:01:26;;;;;;;0.30;0.30;;;9.50;99.90;9.50;100474.00;;;;5012728;28;20179;-67
2021/12/29 10:03:57;;;;;;;0.60;0.60;;;9.50;99.90;9.30;100472.00;;;;5014233;28;20179;-67
2021/12/29 10:06:37;;;;;;;0.30;0.30;;;9.60;99.90;9.40;100465.00;;;;5012180;28;20173;-67
2021/12/29 10:09:21;;;;;;;0.30;0.30;;;9.60;99.90;9.50;100463.00;;;;5012788;28;20520;-68
2021/12/29 10:12:08;;;;;;;0.57;0.57;;;9.60;99.90;9.70;100493.00;;;;5012333;28;20237;-68
2021/12/29 10:14:49;;;;;;;0.93;0.90;;;9.70;99.90;9.50;100491.00;;;;5012447;28;20209;-67
2021/12/29 10:17:29;;;;;;;0.30;0.30;;;9.70;99.90;9.50;100484.00;;;;5028963;28;20194;-68
2021/12/29 10:20:32;;;;;;;0.40;0.40;;;9.60;99.90;9.50;100470.00;;;;5012263;28;20628;-67
2021/12/29 10:33:30;;;;;;;0.40;0.40;;;9.40;99.90;9.20;100466.00;;;;5050783;28;20699;-68
2021/12/29 10:36:34;;;;;;;0.23;0.23;;;9.50;99.90;9.30;100458.00;;;;5049432;28;20183;-68
2021/12/29 10:39:30;;;;;;;1.43;1.43;;;9.60;99.90;9.30;100459.00;;;;5049577;28;20178;-68
2021/12/29 10:42:32;;;;;;;1.37;1.37;;;9.60;99.90;9.40;100449.00;;;;5049889;28;20263;-68
2021/12/29 10:45:06;;;;;;;0.63;0.63;;;9.60;99.90;9.60;100458.00;;;;5032788;28;20226;-68
2021/12/29 10:47:47;;;;;;;0.50;0.50;;;9.70;99.90;9.60;100451.00;;;;5049156;28;20652;-68
2021/12/29 10:50:25;;;;;;;0.70;0.70;;;9.80;99.90;9.70;100440.00;;;;5048943;28;20760;-68
2021/12/29 10:53:00;;;;;;;1.03;1.03;;;9.80;99.90;9.70;100457.00;;;;5049273;28;20556;-68
2021/12/29 10:55:41;;;;;;;0.30;0.30;;;9.90;99.90;9.70;100456.00;;;;5050495;28;20638;-69
2021/12/29 10:58:22;;;;;;;0.20;0.20;;;9.90;99.90;10.10;100449.00;;;;5049150;28;20529;-70
2021/12/29 11:01:03;;;;;;;0.80;0.80;;;10.00;99.90;10.30;100437.00;;;;5029073;28;20635;-69
2021/12/29 11:03:48;;;;;;;0.37;0.37;;;10.20;99.90;10.10;100441.00;;;;5028907;28;20193;-68
2021/12/29 11:06:23;;;;;;;0.30;0.30;;;10.20;99.90;9.80;100430.00;;;;5029189;28;20177;-69
2021/12/29 11:09:03;;;;;;;0.50;0.50;;;10.10;99.90;10.20;100437.00;;;;5045434;28;20187;-68
2021/12/29 11:11:45;;;;;;;1.40;1.30;;;10.10;99.90;10.00;100421.00;;;;5030035;28;20195;-69
2021/12/29 11:14:32;;;;;;;0.67;0.53;;;10.10;99.90;10.30;100410.00;;;;5029187;28;20175;-69
2021/12/29 11:17:15;;;;;;;0.73;0.73;;;10.30;99.90;9.90;100416.00;;;;5028681;28;20530;-69
2021/12/29 11:19:58;;;;;;;2.00;1.30;;;10.20;99.90;10.10;100408.00;;;;5029631;28;20187;-69
2021/12/29 11:22:41;;;;;;;1.10;1.10;;;10.30;99.90;10.40;100390.00;;;;5028825;28;20202;-69
2021/12/29 11:25:32;;;;;;;1.13;0.93;;;10.40;99.90;10.50;100389.00;;;;5030514;28;20180;-69
2021/12/29 11:28:07;;;;;;;3.50;1.60;;;10.40;99.90;10.10;100415.00;;;;5029804;28;20583;-68
2021/12/29 11:30:40;;;;;;;2.93;1.23;;;10.40;99.90;10.50;100367.00;;;;5028779;28;20174;-68
2021/12/29 11:33:13;;;;;;;0.67;0.63;;;10.40;99.90;10.50;100394.00;;;;5028133;28;20250;-69
2021/12/29 11:36:03;;;;;;;0.67;0.50;;;10.50;99.90;10.30;100406.00;;;;5028819;28;20266;-69
2021/12/29 11:38:34;;;;;;;0.90;0.70;;;10.60;99.90;10.50;100379.00;;;;5028542;28;20202;-69
2021/12/29 11:41:14;;;;;;;0.30;0.30;;;10.50;99.90;10.20;100391.00;;;;5011969;28;20182;-69
2021/12/29 11:43:51;;;;;;;0.43;0.43;;;10.50;99.90;10.10;100389.00;;;;5020750;28;20713;-69
2021/12/29 11:46:30;;;;;;;1.13;1.13;;;10.40;99.90;10.30;100400.00;;;;5016880;28;20160;-69
2021/12/29 11:49:06;;;;;;;2.93;1.00;;;10.40;99.90;10.20;100396.00;;;;5014901;28;20564;-69
2021/12/29 11:52:02;;;;;;;0.40;0.40;;;10.40;99.90;10.60;100393.00;;;;5015015;28;20205;-69
2021/12/29 11:55:03;;;;;;;0.33;0.33;;;10.50;99.90;10.50;100385.00;;;;5014991;28;20167;-69
2021/12/29 11:57:38;;;;;;;0.90;0.90;;;10.60;99.90;10.30;100388.00;;;;5014987;28;20542;-69
2021/12/29 12:00:26;;;;;;;0.50;0.50;;;10.50;99.90;10.30;100384.00;;;;5016547;28;20629;-69
2021/12/29 12:03:11;;;;;;;0.20;0.20;;;10.50;99.90;10.30;100348.00;;;;5015429;28;20187;-69